sensor_id;sensor_type;location;lat;lon;timestamp;P1;durP1;ratioP1;P2;durP2;ratioP2
61617;SDS011;47518;51.776;9.370;2023-01-28T00:00:28;3.45;;;2.80;;
61617;SDS011;47518;51.776;9.370;2023-01-28T00:02:54;2.90;;;2.67;;
61617;SDS011;47518;51.776;9.370;2023-01-28T00:05:19;2.72;;;2.50;;
61617;SDS011;47518;51.776;9.370;2023-01-28T00:07:47;4.30;;;2.92;;
61617;SDS011;47518;51.776;9.370;2023-01-28T00:10:13;3.65;;;2.88;;
61617;SDS011;47518;51.776;9.370;2023-01-28T00:12:38;3.00;;;2.80;;
61617;SDS011;47518;51.776;9.370;2023-01-28T00:15:04;5.55;;;2.95;;
61617;SDS011;47518;51.776;9.370;2023-01-28T00:17:29;3.60;;;2.95;;
61617;SDS011;47518;51.776;9.370;2023-01-28T00:19:55;3.30;;;2.88;;
61617;SDS011;47518;51.776;9.370;2023-01-28T00:22:20;3.05;;;2.85;;
61617;SDS011;47518;51.776;9.370;2023-01-28T00:24:46;3.60;;;3.10;;
61617;SDS011;47518;51.776;9.370;2023-01-28T00:27:12;5.22;;;2.80;;
61617;SDS011;47518;51.776;9.370;2023-01-28T00:29:37;3.10;;;2.85;;
61617;SDS011;47518;51.776;9.370;2023-01-28T00:32:02;2.58;;;2.40;;
61617;SDS011;47518;51.776;9.370;2023-01-28T00:34:28;4.45;;;2.70;;
61617;SDS011;47518;51.776;9.370;2023-01-28T00:36:53;2.70;;;2.50;;
61617;SDS011;47518;51.776;9.370;2023-01-28T00:39:22;4.90;;;2.50;;
61617;SDS011;47518;51.776;9.370;2023-01-28T00:41:49;4.07;;;2.63;;
61617;SDS011;47518;51.776;9.370;2023-01-28T00:44:16;2.92;;;2.53;;
61617;SDS011;47518;51.776;9.370;2023-01-28T00:46:41;2.72;;;2.50;;
61617;SDS011;47518;51.776;9.370;2023-01-28T00:49:06;3.10;;;2.80;;
61617;SDS011;47518;51.776;9.370;2023-01-28T00:51:32;2.83;;;2.63;;
61617;SDS011;47518;51.776;9.370;2023-01-28T00:53:57;3.75;;;2.50;;
61617;SDS011;47518;51.776;9.370;2023-01-28T00:56:23;4.40;;;2.53;;
61617;SDS011;47518;51.776;9.370;2023-01-28T00:58:48;2.83;;;2.63;;
61617;SDS011;47518;51.776;9.370;2023-01-28T01:03:57;4.80;;;2.60;;
61617;SDS011;47518;51.776;9.370;2023-01-28T01:06:26;2.95;;;2.70;;
61617;SDS011;47518;51.776;9.370;2023-01-28T01:08:53;3.55;;;2.88;;
61617;SDS011;47518;51.776;9.370;2023-01-28T01:11:18;4.15;;;2.90;;
61617;SDS011;47518;51.776;9.370;2023-01-28T01:13:48;2.85;;;2.58;;
61617;SDS011;47518;51.776;9.370;2023-01-28T01:16:14;2.63;;;2.42;;
61617;SDS011;47518;51.776;9.370;2023-01-28T01:18:41;2.70;;;2.50;;
61617;SDS011;47518;51.776;9.370;2023-01-28T01:21:09;3.97;;;2.80;;
61617;SDS011;47518;51.776;9.370;2023-01-28T01:23:37;3.35;;;2.58;;
61617;SDS011;47518;51.776;9.370;2023-01-28T01:26:03;2.80;;;2.60;;
61617;SDS011;47518;51.776;9.370;2023-01-28T01:28:29;3.78;;;2.55;;
61617;SDS011;47518;51.776;9.370;2023-01-28T01:30:59;5.57;;;2.75;;
61617;SDS011;47518;51.776;9.370;2023-01-28T01:33:27;3.20;;;2.60;;
61617;SDS011;47518;51.776;9.370;2023-01-28T01:35:54;2.85;;;2.40;;
61617;SDS011;47518;51.776;9.370;2023-01-28T01:38:19;4.03;;;2.60;;
61617;SDS011;47518;51.776;9.370;2023-01-28T01:40:45;4.43;;;2.40;;
61617;SDS011;47518;51.776;9.370;2023-01-28T01:43:13;2.60;;;2.40;;
61617;SDS011;47518;51.776;9.370;2023-01-28T01:45:40;4.70;;;2.67;;
61617;SDS011;47518;51.776;9.370;2023-01-28T01:48:12;3.28;;;2.60;;
61617;SDS011;47518;51.776;9.370;2023-01-28T01:50:45;3.25;;;2.92;;
61617;SDS011;47518;51.776;9.370;2023-01-28T01:53:17;4.65;;;2.67;;
61617;SDS011;47518;51.776;9.370;2023-01-28T01:55:46;2.83;;;2.58;;
61617;SDS011;47518;51.776;9.370;2023-01-28T01:58:15;2.90;;;2.70;;
61617;SDS011;47518;51.776;9.370;2023-01-28T02:00:43;3.95;;;2.80;;
61617;SDS011;47518;51.776;9.370;2023-01-28T02:03:10;3.85;;;2.63;;
61617;SDS011;47518;51.776;9.370;2023-01-28T02:05:36;3.88;;;2.70;;
61617;SDS011;47518;51.776;9.370;2023-01-28T02:08:03;2.97;;;2.58;;
61617;SDS011;47518;51.776;9.370;2023-01-28T02:10:52;3.53;;;2.50;;
61617;SDS011;47518;51.776;9.370;2023-01-28T02:13:24;2.92;;;2.72;;
61617;SDS011;47518;51.776;9.370;2023-01-28T02:15:53;2.58;;;2.38;;
61617;SDS011;47518;51.776;9.370;2023-01-28T02:18:19;3.55;;;2.80;;
61617;SDS011;47518;51.776;9.370;2023-01-28T02:20:51;5.20;;;2.70;;
61617;SDS011;47518;51.776;9.370;2023-01-28T02:26:31;3.15;;;2.58;;
61617;SDS011;47518;51.776;9.370;2023-01-28T02:29:14;2.50;;;2.30;;
61617;SDS011;47518;51.776;9.370;2023-01-28T02:34:40;4.05;;;2.58;;
61617;SDS011;47518;51.776;9.370;2023-01-28T02:37:19;2.30;;;2.20;;
61617;SDS011;47518;51.776;9.370;2023-01-28T02:39:50;4.13;;;2.47;;
61617;SDS011;47518;51.776;9.370;2023-01-28T02:42:20;2.95;;;2.40;;
61617;SDS011;47518;51.776;9.370;2023-01-28T02:44:49;3.10;;;2.35;;
61617;SDS011;47518;51.776;9.370;2023-01-28T02:47:14;4.85;;;2.50;;
61617;SDS011;47518;51.776;9.370;2023-01-28T02:50:01;3.20;;;2.28;;
61617;SDS011;47518;51.776;9.370;2023-01-28T02:55:59;6.57;;;2.60;;
61617;SDS011;47518;51.776;9.370;2023-01-28T02:58:34;2.92;;;2.17;;
61617;SDS011;47518;51.776;9.370;2023-01-28T03:01:23;3.13;;;2.30;;
61617;SDS011;47518;51.776;9.370;2023-01-28T03:03:56;3.65;;;2.60;;
61617;SDS011;47518;51.776;9.370;2023-01-28T03:06:27;2.78;;;2.40;;
61617;SDS011;47518;51.776;9.370;2023-01-28T03:08:59;3.03;;;2.42;;
61617;SDS011;47518;51.776;9.370;2023-01-28T03:11:49;2.80;;;2.60;;
61617;SDS011;47518;51.776;9.370;2023-01-28T03:14:42;3.35;;;2.38;;
61617;SDS011;47518;51.776;9.370;2023-01-28T03:17:37;3.40;;;2.40;;
61617;SDS011;47518;51.776;9.370;2023-01-28T03:20:33;2.30;;;2.10;;
61617;SDS011;47518;51.776;9.370;2023-01-28T03:23:26;2.25;;;2.15;;
61617;SDS011;47518;51.776;9.370;2023-01-28T03:26:14;4.00;;;2.40;;
61617;SDS011;47518;51.776;9.370;2023-01-28T03:29:04;4.63;;;2.40;;
61617;SDS011;47518;51.776;9.370;2023-01-28T03:31:53;3.08;;;2.20;;
61617;SDS011;47518;51.776;9.370;2023-01-28T03:34:40;3.45;;;2.33;;
61617;SDS011;47518;51.776;9.370;2023-01-28T03:37:27;4.57;;;2.35;;
61617;SDS011;47518;51.776;9.370;2023-01-28T03:39:54;2.55;;;2.35;;
61617;SDS011;47518;51.776;9.370;2023-01-28T03:42:22;6.07;;;2.55;;
61617;SDS011;47518;51.776;9.370;2023-01-28T03:44:47;5.00;;;2.60;;
61617;SDS011;47518;51.776;9.370;2023-01-28T03:47:14;3.65;;;2.38;;
61617;SDS011;47518;51.776;9.370;2023-01-28T03:49:41;2.60;;;2.40;;
61617;SDS011;47518;51.776;9.370;2023-01-28T03:52:09;3.65;;;2.47;;
61617;SDS011;47518;51.776;9.370;2023-01-28T03:54:36;2.58;;;2.25;;
61617;SDS011;47518;51.776;9.370;2023-01-28T03:57:01;2.50;;;2.30;;
61617;SDS011;47518;51.776;9.370;2023-01-28T03:59:27;3.45;;;2.50;;
61617;SDS011;47518;51.776;9.370;2023-01-28T04:01:53;5.53;;;2.60;;
61617;SDS011;47518;51.776;9.370;2023-01-28T04:04:19;2.55;;;2.30;;
61617;SDS011;47518;51.776;9.370;2023-01-28T04:06:50;2.78;;;2.40;;
61617;SDS011;47518;51.776;9.370;2023-01-28T04:09:16;3.25;;;2.70;;
61617;SDS011;47518;51.776;9.370;2023-01-28T04:11:42;2.85;;;2.42;;
61617;SDS011;47518;51.776;9.370;2023-01-28T04:14:07;2.78;;;2.45;;
61617;SDS011;47518;51.776;9.370;2023-01-28T04:16:32;2.60;;;2.40;;
61617;SDS011;47518;51.776;9.370;2023-01-28T04:18:58;6.18;;;2.80;;
61617;SDS011;47518;51.776;9.370;2023-01-28T04:21:23;3.40;;;2.60;;
61617;SDS011;47518;51.776;9.370;2023-01-28T04:23:49;3.53;;;2.50;;
61617;SDS011;47518;51.776;9.370;2023-01-28T04:26:14;2.80;;;2.60;;
61617;SDS011;47518;51.776;9.370;2023-01-28T04:28:40;2.60;;;2.40;;
61617;SDS011;47518;51.776;9.370;2023-01-28T04:31:05;3.90;;;2.67;;
61617;SDS011;47518;51.776;9.370;2023-01-28T04:33:30;3.60;;;2.35;;
61617;SDS011;47518;51.776;9.370;2023-01-28T04:35:56;3.90;;;2.90;;
61617;SDS011;47518;51.776;9.370;2023-01-28T04:38:21;2.90;;;2.70;;
61617;SDS011;47518;51.776;9.370;2023-01-28T04:40:48;3.80;;;3.00;;
61617;SDS011;47518;51.776;9.370;2023-01-28T04:43:15;3.25;;;2.95;;
61617;SDS011;47518;51.776;9.370;2023-01-28T04:45:40;3.53;;;3.22;;
61617;SDS011;47518;51.776;9.370;2023-01-28T04:48:06;3.20;;;2.90;;
61617;SDS011;47518;51.776;9.370;2023-01-28T04:50:31;3.42;;;3.00;;
61617;SDS011;47518;51.776;9.370;2023-01-28T04:52:56;3.92;;;3.15;;
61617;SDS011;47518;51.776;9.370;2023-01-28T04:55:21;4.00;;;2.33;;
61617;SDS011;47518;51.776;9.370;2023-01-28T04:57:47;3.08;;;2.50;;
61617;SDS011;47518;51.776;9.370;2023-01-28T05:00:12;2.63;;;2.42;;
61617;SDS011;47518;51.776;9.370;2023-01-28T05:02:38;3.88;;;2.50;;
61617;SDS011;47518;51.776;9.370;2023-01-28T05:05:04;2.63;;;2.40;;
61617;SDS011;47518;51.776;9.370;2023-01-28T05:07:32;4.68;;;2.53;;
61617;SDS011;47518;51.776;9.370;2023-01-28T05:09:58;2.65;;;2.45;;
61617;SDS011;47518;51.776;9.370;2023-01-28T05:12:23;3.42;;;2.50;;
61617;SDS011;47518;51.776;9.370;2023-01-28T05:29:17;2.97;;;2.75;;
61617;SDS011;47518;51.776;9.370;2023-01-28T05:31:42;2.58;;;2.40;;
61617;SDS011;47518;51.776;9.370;2023-01-28T05:34:08;2.50;;;2.40;;
61617;SDS011;47518;51.776;9.370;2023-01-28T05:36:33;4.80;;;2.50;;
61617;SDS011;47518;51.776;9.370;2023-01-28T05:38:58;3.05;;;2.53;;
61617;SDS011;47518;51.776;9.370;2023-01-28T05:41:24;3.53;;;2.72;;
61617;SDS011;47518;51.776;9.370;2023-01-28T05:43:49;2.80;;;2.60;;
61617;SDS011;47518;51.776;9.370;2023-01-28T05:46:14;3.13;;;2.35;;
61617;SDS011;47518;51.776;9.370;2023-01-28T05:48:40;4.38;;;2.30;;
61617;SDS011;47518;51.776;9.370;2023-01-28T05:51:05;3.58;;;2.30;;
61617;SDS011;47518;51.776;9.370;2023-01-28T05:53:31;2.70;;;2.50;;
61617;SDS011;47518;51.776;9.370;2023-01-28T05:55:56;2.75;;;2.20;;
61617;SDS011;47518;51.776;9.370;2023-01-28T05:58:21;2.40;;;2.20;;
61617;SDS011;47518;51.776;9.370;2023-01-28T06:00:47;3.33;;;2.47;;
61617;SDS011;47518;51.776;9.370;2023-01-28T06:03:12;2.40;;;2.20;;
61617;SDS011;47518;51.776;9.370;2023-01-28T06:05:38;2.55;;;2.35;;
61617;SDS011;47518;51.776;9.370;2023-01-28T06:08:03;2.17;;;2.08;;
61617;SDS011;47518;51.776;9.370;2023-01-28T06:10:29;2.42;;;2.22;;
61617;SDS011;47518;51.776;9.370;2023-01-28T06:12:55;2.33;;;2.20;;
61617;SDS011;47518;51.776;9.370;2023-01-28T06:15:20;2.55;;;2.35;;
61617;SDS011;47518;51.776;9.370;2023-01-28T06:17:46;2.70;;;2.13;;
61617;SDS011;47518;51.776;9.370;2023-01-28T06:20:11;2.63;;;2.42;;
61617;SDS011;47518;51.776;9.370;2023-01-28T06:22:36;4.15;;;2.45;;
61617;SDS011;47518;51.776;9.370;2023-01-28T06:25:02;2.40;;;2.20;;
61617;SDS011;47518;51.776;9.370;2023-01-28T06:27:28;5.38;;;2.40;;
61617;SDS011;47518;51.776;9.370;2023-01-28T06:29:53;2.40;;;2.20;;
61617;SDS011;47518;51.776;9.370;2023-01-28T06:32:19;2.60;;;2.35;;
61617;SDS011;47518;51.776;9.370;2023-01-28T06:34:44;2.28;;;2.13;;
61617;SDS011;47518;51.776;9.370;2023-01-28T06:37:11;2.78;;;2.25;;
61617;SDS011;47518;51.776;9.370;2023-01-28T06:39:37;3.10;;;2.63;;
61617;SDS011;47518;51.776;9.370;2023-01-28T06:42:02;2.75;;;2.55;;
61617;SDS011;47518;51.776;9.370;2023-01-28T06:44:28;2.53;;;2.33;;
61617;SDS011;47518;51.776;9.370;2023-01-28T06:46:53;2.60;;;2.40;;
61617;SDS011;47518;51.776;9.370;2023-01-28T06:49:18;2.60;;;2.40;;
61617;SDS011;47518;51.776;9.370;2023-01-28T06:51:45;3.25;;;2.47;;
61617;SDS011;47518;51.776;9.370;2023-01-28T06:54:10;2.78;;;2.58;;
61617;SDS011;47518;51.776;9.370;2023-01-28T06:56:36;3.00;;;2.72;;
61617;SDS011;47518;51.776;9.370;2023-01-28T06:59:01;4.20;;;3.10;;
61617;SDS011;47518;51.776;9.370;2023-01-28T07:01:26;3.92;;;3.30;;
61617;SDS011;47518;51.776;9.370;2023-01-28T07:03:51;5.60;;;4.00;;
61617;SDS011;47518;51.776;9.370;2023-01-28T07:06:17;4.20;;;3.20;;
61617;SDS011;47518;51.776;9.370;2023-01-28T07:08:42;3.25;;;2.95;;
61617;SDS011;47518;51.776;9.370;2023-01-28T07:11:07;4.47;;;3.15;;
61617;SDS011;47518;51.776;9.370;2023-01-28T07:13:33;2.95;;;2.72;;
61617;SDS011;47518;51.776;9.370;2023-01-28T07:15:58;4.13;;;2.80;;
61617;SDS011;47518;51.776;9.370;2023-01-28T07:18:24;2.72;;;2.53;;
61617;SDS011;47518;51.776;9.370;2023-01-28T07:20:50;2.80;;;2.55;;
61617;SDS011;47518;51.776;9.370;2023-01-28T07:23:15;3.85;;;2.90;;
61617;SDS011;47518;51.776;9.370;2023-01-28T07:25:40;3.20;;;2.88;;
61617;SDS011;47518;51.776;9.370;2023-01-28T07:28:06;2.95;;;2.75;;
61617;SDS011;47518;51.776;9.370;2023-01-28T07:30:31;3.00;;;2.70;;
61617;SDS011;47518;51.776;9.370;2023-01-28T07:32:57;2.70;;;2.50;;
61617;SDS011;47518;51.776;9.370;2023-01-28T07:35:23;2.70;;;2.50;;
61617;SDS011;47518;51.776;9.370;2023-01-28T07:37:50;2.88;;;2.67;;
61617;SDS011;47518;51.776;9.370;2023-01-28T07:40:20;2.70;;;2.50;;
61617;SDS011;47518;51.776;9.370;2023-01-28T07:42:46;4.90;;;2.97;;
61617;SDS011;47518;51.776;9.370;2023-01-28T07:45:11;3.25;;;2.80;;
61617;SDS011;47518;51.776;9.370;2023-01-28T07:47:38;3.30;;;3.08;;
61617;SDS011;47518;51.776;9.370;2023-01-28T07:50:03;2.83;;;2.63;;
61617;SDS011;47518;51.776;9.370;2023-01-28T07:52:28;3.08;;;2.75;;
61617;SDS011;47518;51.776;9.370;2023-01-28T07:54:54;3.13;;;2.83;;
61617;SDS011;47518;51.776;9.370;2023-01-28T07:57:19;2.92;;;2.70;;
61617;SDS011;47518;51.776;9.370;2023-01-28T07:59:47;2.97;;;2.72;;
61617;SDS011;47518;51.776;9.370;2023-01-28T08:02:15;4.32;;;3.42;;
61617;SDS011;47518;51.776;9.370;2023-01-28T08:04:41;3.40;;;3.10;;
61617;SDS011;47518;51.776;9.370;2023-01-28T08:07:06;4.68;;;3.17;;
61617;SDS011;47518;51.776;9.370;2023-01-28T08:09:32;3.28;;;3.08;;
61617;SDS011;47518;51.776;9.370;2023-01-28T08:11:58;4.55;;;3.50;;
61617;SDS011;47518;51.776;9.370;2023-01-28T08:14:25;8.90;;;3.65;;
61617;SDS011;47518;51.776;9.370;2023-01-28T08:16:51;4.28;;;3.60;;
61617;SDS011;47518;51.776;9.370;2023-01-28T08:19:16;5.63;;;3.53;;
61617;SDS011;47518;51.776;9.370;2023-01-28T08:21:42;6.32;;;3.78;;
61617;SDS011;47518;51.776;9.370;2023-01-28T08:24:08;3.95;;;3.55;;
61617;SDS011;47518;51.776;9.370;2023-01-28T08:26:33;4.38;;;3.65;;
61617;SDS011;47518;51.776;9.370;2023-01-28T08:28:59;5.63;;;3.70;;
61617;SDS011;47518;51.776;9.370;2023-01-28T08:31:24;4.82;;;3.58;;
61617;SDS011;47518;51.776;9.370;2023-01-28T08:33:49;4.00;;;3.60;;
61617;SDS011;47518;51.776;9.370;2023-01-28T08:36:15;5.60;;;3.65;;
61617;SDS011;47518;51.776;9.370;2023-01-28T08:38:40;3.92;;;3.53;;
61617;SDS011;47518;51.776;9.370;2023-01-28T08:41:06;3.90;;;3.50;;
61617;SDS011;47518;51.776;9.370;2023-01-28T08:43:31;4.82;;;3.03;;
61617;SDS011;47518;51.776;9.370;2023-01-28T08:45:56;3.30;;;3.00;;
61617;SDS011;47518;51.776;9.370;2023-01-28T08:48:21;3.40;;;3.10;;
61617;SDS011;47518;51.776;9.370;2023-01-28T08:50:47;4.25;;;3.00;;
61617;SDS011;47518;51.776;9.370;2023-01-28T08:53:13;4.40;;;2.92;;
61617;SDS011;47518;51.776;9.370;2023-01-28T08:55:41;2.97;;;2.78;;
61617;SDS011;47518;51.776;9.370;2023-01-28T08:58:09;3.58;;;3.20;;
61617;SDS011;47518;51.776;9.370;2023-01-28T09:00:36;4.65;;;3.80;;
61617;SDS011;47518;51.776;9.370;2023-01-28T09:03:03;6.28;;;4.30;;
61617;SDS011;47518;51.776;9.370;2023-01-28T09:05:29;3.42;;;3.17;;
61617;SDS011;47518;51.776;9.370;2023-01-28T09:07:56;4.45;;;3.22;;
61617;SDS011;47518;51.776;9.370;2023-01-28T09:10:21;4.18;;;3.78;;
61617;SDS011;47518;51.776;9.370;2023-01-28T09:12:47;4.75;;;3.75;;
61617;SDS011;47518;51.776;9.370;2023-01-28T09:15:12;4.65;;;3.80;;
61617;SDS011;47518;51.776;9.370;2023-01-28T09:17:38;3.75;;;3.45;;
61617;SDS011;47518;51.776;9.370;2023-01-28T09:20:04;3.53;;;3.30;;
61617;SDS011;47518;51.776;9.370;2023-01-28T09:22:31;5.25;;;3.90;;
61617;SDS011;47518;51.776;9.370;2023-01-28T09:24:57;4.38;;;3.10;;
61617;SDS011;47518;51.776;9.370;2023-01-28T09:27:22;3.53;;;3.10;;
61617;SDS011;47518;51.776;9.370;2023-01-28T09:29:47;3.78;;;3.17;;
61617;SDS011;47518;51.776;9.370;2023-01-28T09:32:13;3.20;;;3.00;;
61617;SDS011;47518;51.776;9.370;2023-01-28T09:34:38;4.28;;;3.03;;
61617;SDS011;47518;51.776;9.370;2023-01-28T09:37:03;3.80;;;3.08;;
61617;SDS011;47518;51.776;9.370;2023-01-28T09:39:29;3.45;;;2.97;;
61617;SDS011;47518;51.776;9.370;2023-01-28T09:47:41;4.00;;;3.50;;
61617;SDS011;47518;51.776;9.370;2023-01-28T09:50:19;4.03;;;3.20;;
61617;SDS011;47518;51.776;9.370;2023-01-28T09:52:50;3.60;;;3.30;;
61617;SDS011;47518;51.776;9.370;2023-01-28T09:55:36;4.78;;;3.20;;
61617;SDS011;47518;51.776;9.370;2023-01-28T09:58:06;4.70;;;3.25;;
61617;SDS011;47518;51.776;9.370;2023-01-28T10:15:08;3.78;;;3.33;;
61617;SDS011;47518;51.776;9.370;2023-01-28T10:17:48;3.67;;;3.20;;
61617;SDS011;47518;51.776;9.370;2023-01-28T10:20:21;4.78;;;3.40;;
61617;SDS011;47518;51.776;9.370;2023-01-28T10:23:03;4.93;;;3.50;;
61617;SDS011;47518;51.776;9.370;2023-01-28T10:25:35;3.33;;;3.03;;
61617;SDS011;47518;51.776;9.370;2023-01-28T10:28:01;3.42;;;3.10;;
61617;SDS011;47518;51.776;9.370;2023-01-28T10:30:29;4.00;;;3.60;;
61617;SDS011;47518;51.776;9.370;2023-01-28T10:33:04;10.32;;;3.60;;
61617;SDS011;47518;51.776;9.370;2023-01-28T10:35:40;6.18;;;4.40;;
61617;SDS011;47518;51.776;9.370;2023-01-28T10:38:07;4.20;;;3.30;;
61617;SDS011;47518;51.776;9.370;2023-01-28T10:40:37;3.80;;;3.33;;
61617;SDS011;47518;51.776;9.370;2023-01-28T10:43:05;5.07;;;3.50;;
61617;SDS011;47518;51.776;9.370;2023-01-28T10:48:43;4.30;;;3.25;;
61617;SDS011;47518;51.776;9.370;2023-01-28T10:51:12;6.13;;;3.30;;
61617;SDS011;47518;51.776;9.370;2023-01-28T10:53:41;4.13;;;3.30;;
61617;SDS011;47518;51.776;9.370;2023-01-28T10:56:08;6.45;;;3.40;;
61617;SDS011;47518;51.776;9.370;2023-01-28T10:58:56;5.47;;;3.60;;
61617;SDS011;47518;51.776;9.370;2023-01-28T11:01:25;6.53;;;2.92;;
61617;SDS011;47518;51.776;9.370;2023-01-28T11:04:03;5.45;;;3.10;;
61617;SDS011;47518;51.776;9.370;2023-01-28T11:06:28;4.70;;;3.20;;
61617;SDS011;47518;51.776;9.370;2023-01-28T11:08:54;5.15;;;2.97;;
61617;SDS011;47518;51.776;9.370;2023-01-28T11:11:22;4.45;;;2.95;;
61617;SDS011;47518;51.776;9.370;2023-01-28T11:13:51;2.90;;;2.70;;
61617;SDS011;47518;51.776;9.370;2023-01-28T11:16:18;3.40;;;3.20;;
61617;SDS011;47518;51.776;9.370;2023-01-28T11:18:47;3.30;;;3.00;;
61617;SDS011;47518;51.776;9.370;2023-01-28T11:21:18;3.00;;;2.80;;
61617;SDS011;47518;51.776;9.370;2023-01-28T11:23:51;3.00;;;2.80;;
61617;SDS011;47518;51.776;9.370;2023-01-28T11:26:21;5.05;;;3.20;;
61617;SDS011;47518;51.776;9.370;2023-01-28T11:28:50;4.77;;;3.30;;
61617;SDS011;47518;51.776;9.370;2023-01-28T11:31:17;3.33;;;3.03;;
61617;SDS011;47518;51.776;9.370;2023-01-28T11:33:45;4.65;;;3.20;;
61617;SDS011;47518;51.776;9.370;2023-01-28T11:36:31;4.28;;;3.30;;
61617;SDS011;47518;51.776;9.370;2023-01-28T11:38:59;5.60;;;3.40;;
61617;SDS011;47518;51.776;9.370;2023-01-28T11:41:30;3.97;;;3.20;;
61617;SDS011;47518;51.776;9.370;2023-01-28T11:43:57;4.00;;;3.20;;
61617;SDS011;47518;51.776;9.370;2023-01-28T11:46:36;3.60;;;3.30;;
61617;SDS011;47518;51.776;9.370;2023-01-28T11:49:27;3.88;;;3.47;;
61617;SDS011;47518;51.776;9.370;2023-01-28T11:52:04;4.38;;;3.80;;
61617;SDS011;47518;51.776;9.370;2023-01-28T11:54:46;3.72;;;3.20;;
61617;SDS011;47518;51.776;9.370;2023-01-28T11:57:25;3.45;;;3.15;;
61617;SDS011;47518;51.776;9.370;2023-01-28T12:05:36;3.60;;;3.30;;
61617;SDS011;47518;51.776;9.370;2023-01-28T12:08:14;4.47;;;3.45;;
61617;SDS011;47518;51.776;9.370;2023-01-28T12:32:50;4.32;;;3.60;;
61617;SDS011;47518;51.776;9.370;2023-01-28T12:48:46;4.65;;;3.92;;
61617;SDS011;47518;51.776;9.370;2023-01-28T12:51:17;5.80;;;3.97;;
61617;SDS011;47518;51.776;9.370;2023-01-28T12:53:49;4.75;;;4.35;;
61617;SDS011;47518;51.776;9.370;2023-01-28T13:09:29;5.63;;;4.10;;
61617;SDS011;47518;51.776;9.370;2023-01-28T13:12:00;5.00;;;4.05;;
61617;SDS011;47518;51.776;9.370;2023-01-28T13:14:28;4.80;;;4.30;;
61617;SDS011;47518;51.776;9.370;2023-01-28T13:16:56;4.13;;;3.72;;
61617;SDS011;47518;51.776;9.370;2023-01-28T13:19:36;5.15;;;4.40;;
61617;SDS011;47518;51.776;9.370;2023-01-28T13:22:21;5.70;;;4.40;;
61617;SDS011;47518;51.776;9.370;2023-01-28T13:24:52;4.60;;;4.20;;
61617;SDS011;47518;51.776;9.370;2023-01-28T13:27:21;5.20;;;4.70;;
61617;SDS011;47518;51.776;9.370;2023-01-28T13:29:58;8.75;;;4.85;;
61617;SDS011;47518;51.776;9.370;2023-01-28T13:32:28;4.18;;;3.78;;
61617;SDS011;47518;51.776;9.370;2023-01-28T13:35:01;4.70;;;3.92;;
61617;SDS011;47518;51.776;9.370;2023-01-28T13:53:33;4.20;;;3.80;;
61617;SDS011;47518;51.776;9.370;2023-01-28T13:56:06;4.63;;;3.95;;
61617;SDS011;47518;51.776;9.370;2023-01-28T13:58:50;5.43;;;4.82;;
61617;SDS011;47518;51.776;9.370;2023-01-28T14:25:16;9.70;;;4.20;;
61617;SDS011;47518;51.776;9.370;2023-01-28T14:27:53;4.63;;;4.15;;
61617;SDS011;47518;51.776;9.370;2023-01-28T14:43:30;6.30;;;4.53;;
61617;SDS011;47518;51.776;9.370;2023-01-28T15:01:45;8.13;;;5.63;;
61617;SDS011;47518;51.776;9.370;2023-01-28T15:07:17;9.48;;;6.40;;
61617;SDS011;47518;51.776;9.370;2023-01-28T15:09:44;6.13;;;5.05;;
61617;SDS011;47518;51.776;9.370;2023-01-28T15:12:10;6.10;;;4.50;;
61617;SDS011;47518;51.776;9.370;2023-01-28T15:14:36;7.95;;;5.28;;
61617;SDS011;47518;51.776;9.370;2023-01-28T15:17:03;10.10;;;5.78;;
61617;SDS011;47518;51.776;9.370;2023-01-28T15:19:31;9.70;;;5.32;;
61617;SDS011;47518;51.776;9.370;2023-01-28T15:22:03;7.75;;;5.03;;
61617;SDS011;47518;51.776;9.370;2023-01-28T15:24:31;7.38;;;4.60;;
61617;SDS011;47518;51.776;9.370;2023-01-28T15:26:58;5.18;;;4.55;;
61617;SDS011;47518;51.776;9.370;2023-01-28T15:29:30;8.60;;;4.70;;
61617;SDS011;47518;51.776;9.370;2023-01-28T15:31:57;6.00;;;4.40;;
61617;SDS011;47518;51.776;9.370;2023-01-28T15:34:23;4.65;;;4.22;;
61617;SDS011;47518;51.776;9.370;2023-01-28T15:36:54;7.15;;;4.38;;
61617;SDS011;47518;51.776;9.370;2023-01-28T15:39:21;4.72;;;4.22;;
61617;SDS011;47518;51.776;9.370;2023-01-28T15:41:49;6.65;;;4.57;;
61617;SDS011;47518;51.776;9.370;2023-01-28T15:44:21;6.35;;;4.43;;
61617;SDS011;47518;51.776;9.370;2023-01-28T15:46:54;6.38;;;5.10;;
61617;SDS011;47518;51.776;9.370;2023-01-28T15:49:21;5.55;;;5.03;;
61617;SDS011;47518;51.776;9.370;2023-01-28T15:51:50;5.68;;;4.93;;
61617;SDS011;47518;51.776;9.370;2023-01-28T15:54:17;6.90;;;5.10;;
61617;SDS011;47518;51.776;9.370;2023-01-28T15:56:43;6.43;;;5.20;;
61617;SDS011;47518;51.776;9.370;2023-01-28T15:59:25;5.80;;;5.10;;
61617;SDS011;47518;51.776;9.370;2023-01-28T16:04:42;8.95;;;5.25;;
61617;SDS011;47518;51.776;9.370;2023-01-28T16:07:08;9.35;;;5.65;;
61617;SDS011;47518;51.776;9.370;2023-01-28T16:09:34;6.88;;;5.38;;
61617;SDS011;47518;51.776;9.370;2023-01-28T16:12:02;6.93;;;5.55;;
61617;SDS011;47518;51.776;9.370;2023-01-28T16:14:33;6.85;;;5.53;;
61617;SDS011;47518;51.776;9.370;2023-01-28T16:17:12;6.95;;;5.55;;
61617;SDS011;47518;51.776;9.370;2023-01-28T16:19:42;7.07;;;6.35;;
61617;SDS011;47518;51.776;9.370;2023-01-28T16:22:18;9.30;;;6.72;;
61617;SDS011;47518;51.776;9.370;2023-01-28T16:24:51;10.43;;;6.30;;
61617;SDS011;47518;51.776;9.370;2023-01-28T16:27:19;6.93;;;6.20;;
61617;SDS011;47518;51.776;9.370;2023-01-28T16:29:47;8.15;;;6.22;;
61617;SDS011;47518;51.776;9.370;2023-01-28T16:35:00;7.75;;;6.65;;
61617;SDS011;47518;51.776;9.370;2023-01-28T16:37:27;10.68;;;8.13;;
61617;SDS011;47518;51.776;9.370;2023-01-28T16:39:52;10.20;;;7.68;;
61617;SDS011;47518;51.776;9.370;2023-01-28T16:42:18;12.15;;;7.53;;
61617;SDS011;47518;51.776;9.370;2023-01-28T16:44:43;9.63;;;6.82;;
61617;SDS011;47518;51.776;9.370;2023-01-28T16:47:09;9.43;;;6.80;;
61617;SDS011;47518;51.776;9.370;2023-01-28T16:49:34;7.07;;;5.78;;
61617;SDS011;47518;51.776;9.370;2023-01-28T16:52:00;11.57;;;8.82;;
61617;SDS011;47518;51.776;9.370;2023-01-28T16:54:26;11.88;;;8.20;;
61617;SDS011;47518;51.776;9.370;2023-01-28T16:56:52;12.25;;;7.38;;
61617;SDS011;47518;51.776;9.370;2023-01-28T16:59:19;10.85;;;6.88;;
61617;SDS011;47518;51.776;9.370;2023-01-28T17:01:45;9.23;;;6.55;;
61617;SDS011;47518;51.776;9.370;2023-01-28T17:04:11;9.38;;;6.75;;
61617;SDS011;47518;51.776;9.370;2023-01-28T17:06:37;12.57;;;7.50;;
61617;SDS011;47518;51.776;9.370;2023-01-28T17:09:04;13.32;;;7.80;;
61617;SDS011;47518;51.776;9.370;2023-01-28T17:11:29;12.70;;;8.60;;
61617;SDS011;47518;51.776;9.370;2023-01-28T17:13:55;12.48;;;8.32;;
61617;SDS011;47518;51.776;9.370;2023-01-28T17:16:20;11.02;;;8.48;;
61617;SDS011;47518;51.776;9.370;2023-01-28T17:18:48;12.73;;;9.45;;
61617;SDS011;47518;51.776;9.370;2023-01-28T17:21:15;17.02;;;9.85;;
61617;SDS011;47518;51.776;9.370;2023-01-28T17:23:41;12.80;;;9.05;;
61617;SDS011;47518;51.776;9.370;2023-01-28T17:26:07;14.82;;;9.23;;
61617;SDS011;47518;51.776;9.370;2023-01-28T17:28:34;25.55;;;15.25;;
61617;SDS011;47518;51.776;9.370;2023-01-28T17:31:03;26.45;;;15.50;;
61617;SDS011;47518;51.776;9.370;2023-01-28T17:33:30;19.30;;;12.75;;
61617;SDS011;47518;51.776;9.370;2023-01-28T17:35:55;12.52;;;9.55;;
61617;SDS011;47518;51.776;9.370;2023-01-28T17:38:22;14.30;;;9.63;;
61617;SDS011;47518;51.776;9.370;2023-01-28T17:40:47;14.73;;;10.43;;
61617;SDS011;47518;51.776;9.370;2023-01-28T17:43:13;13.73;;;10.30;;
61617;SDS011;47518;51.776;9.370;2023-01-28T17:45:38;19.33;;;12.18;;
61617;SDS011;47518;51.776;9.370;2023-01-28T17:48:03;18.15;;;12.07;;
61617;SDS011;47518;51.776;9.370;2023-01-28T17:50:30;19.27;;;12.57;;
61617;SDS011;47518;51.776;9.370;2023-01-28T17:52:55;16.30;;;11.85;;
61617;SDS011;47518;51.776;9.370;2023-01-28T17:55:22;15.02;;;10.52;;